sensor_id;sensor_type;location;lat;lon;timestamp;pressure;altitude;pressure_sealevel;temperature;humidity
54924;BME280;40825;52.270;20.984;2022-09-09T00:00:22;100384.30;;;13.08;74.78
54924;BME280;40825;52.270;20.984;2022-09-09T00:02:31;100381.02;;;12.91;75.48
54924;BME280;40825;52.270;20.984;2022-09-09T00:03:12;100381.06;;;12.95;75.93
54924;BME280;40825;52.270;20.984;2022-09-09T00:06:08;100378.67;;;12.73;76.47
54924;BME280;40825;52.270;20.984;2022-09-09T00:07:51;100378.42;;;12.66;75.29
54924;BME280;40825;52.270;20.984;2022-09-09T00:08:21;100379.16;;;12.64;76.24
54924;BME280;40825;52.270;20.984;2022-09-09T00:09:02;100380.52;;;12.68;76.78
54924;BME280;40825;52.270;20.984;2022-09-09T00:09:28;100378.59;;;12.65;77.49
54924;BME280;40825;52.270;20.984;2022-09-09T00:10:03;100374.52;;;12.64;76.73
54924;BME280;40825;52.270;20.984;2022-09-09T00:11:01;100372.77;;;12.66;76.71
54924;BME280;40825;52.270;20.984;2022-09-09T00:11:40;100374.76;;;12.67;76.51
54924;BME280;40825;52.270;20.984;2022-09-09T00:12:25;100375.34;;;12.65;76.78
54924;BME280;40825;52.270;20.984;2022-09-09T00:13:13;100371.95;;;12.60;76.70
54924;BME280;40825;52.270;20.984;2022-09-09T00:13:48;100370.34;;;12.53;76.71
54924;BME280;40825;52.270;20.984;2022-09-09T00:14:32;100377.17;;;12.51;76.88
54924;BME280;40825;52.270;20.984;2022-09-09T00:15:02;100370.29;;;12.51;77.17
54924;BME280;40825;52.270;20.984;2022-09-09T00:16:17;100370.66;;;12.52;77.87
54924;BME280;40825;52.270;20.984;2022-09-09T00:16:47;100372.35;;;12.51;77.26
54924;BME280;40825;52.270;20.984;2022-09-09T00:17:53;100373.80;;;12.50;77.71
54924;BME280;40825;52.270;20.984;2022-09-09T00:18:29;100371.98;;;12.50;77.38
54924;BME280;40825;52.270;20.984;2022-09-09T00:20:33;100371.73;;;12.40;78.09
54924;BME280;40825;52.270;20.984;2022-09-09T00:21:10;100367.94;;;12.39;77.71
54924;BME280;40825;52.270;20.984;2022-09-09T00:21:35;100369.75;;;12.40;78.06
54924;BME280;40825;52.270;20.984;2022-09-09T00:22:36;100365.42;;;12.43;77.66
54924;BME280;40825;52.270;20.984;2022-09-09T00:23:14;100365.98;;;12.43;78.17
54924;BME280;40825;52.270;20.984;2022-09-09T00:23:48;100366.63;;;12.43;78.34
54924;BME280;40825;52.270;20.984;2022-09-09T00:24:27;100363.63;;;12.43;78.01
54924;BME280;40825;52.270;20.984;2022-09-09T00:24:52;100363.34;;;12.44;78.03
54924;BME280;40825;52.270;20.984;2022-09-09T00:25:39;100363.49;;;12.44;78.01
54924;BME280;40825;52.270;20.984;2022-09-09T00:26:15;100362.58;;;12.44;77.73
54924;BME280;40825;52.270;20.984;2022-09-09T00:26:45;100365.84;;;12.44;78.76
54924;BME280;40825;52.270;20.984;2022-09-09T00:27:18;100358.99;;;12.44;78.35
54924;BME280;40825;52.270;20.984;2022-09-09T00:27:45;100363.13;;;12.47;78.92
54924;BME280;40825;52.270;20.984;2022-09-09T00:28:19;100363.38;;;12.48;79.03
54924;BME280;40825;52.270;20.984;2022-09-09T00:28:52;100360.45;;;12.49;79.17
54924;BME280;40825;52.270;20.984;2022-09-09T00:30:11;100358.27;;;12.47;79.04
54924;BME280;40825;52.270;20.984;2022-09-09T00:30:37;100360.89;;;12.46;79.29
54924;BME280;40825;52.270;20.984;2022-09-09T00:31:07;100355.75;;;12.46;79.31
54924;BME280;40825;52.270;20.984;2022-09-09T00:31:32;100356.45;;;12.46;79.30
54924;BME280;40825;52.270;20.984;2022-09-09T00:31:57;100354.73;;;12.48;79.72
54924;BME280;40825;52.270;20.984;2022-09-09T00:32:22;100355.47;;;12.50;79.06
54924;BME280;40825;52.270;20.984;2022-09-09T00:32:50;100355.35;;;12.51;79.17
54924;BME280;40825;52.270;20.984;2022-09-09T00:33:15;100357.02;;;12.54;79.19
54924;BME280;40825;52.270;20.984;2022-09-09T00:33:38;100357.95;;;12.56;79.22
54924;BME280;40825;52.270;20.984;2022-09-09T00:34:15;100358.64;;;12.58;79.44
54924;BME280;40825;52.270;20.984;2022-09-09T00:34:52;100362.73;;;12.58;79.27
54924;BME280;40825;52.270;20.984;2022-09-09T00:35:17;100363.09;;;12.53;79.36
54924;BME280;40825;52.270;20.984;2022-09-09T00:35:47;100358.30;;;12.52;79.29
54924;BME280;40825;52.270;20.984;2022-09-09T00:36:13;100361.48;;;12.53;79.48
54924;BME280;40825;52.270;20.984;2022-09-09T00:36:38;100357.45;;;12.55;79.56
54924;BME280;40825;52.270;20.984;2022-09-09T00:36:59;100358.02;;;12.56;79.55
54924;BME280;40825;52.270;20.984;2022-09-09T00:37:23;100360.37;;;12.58;79.84
54924;BME280;40825;52.270;20.984;2022-09-09T00:37:48;100356.34;;;12.59;79.39
54924;BME280;40825;52.270;20.984;2022-09-09T00:38:17;100355.21;;;12.59;79.38
54924;BME280;40825;52.270;20.984;2022-09-09T00:38:48;100354.04;;;12.59;79.13
54924;BME280;40825;52.270;20.984;2022-09-09T00:39:27;100355.02;;;12.60;79.27
54924;BME280;40825;52.270;20.984;2022-09-09T00:39:56;100355.55;;;12.57;78.92
54924;BME280;40825;52.270;20.984;2022-09-09T00:40:25;100355.64;;;12.57;79.45
54924;BME280;40825;52.270;20.984;2022-09-09T00:40:51;100358.80;;;12.60;79.55
54924;BME280;40825;52.270;20.984;2022-09-09T00:41:30;100357.36;;;12.61;79.59
54924;BME280;40825;52.270;20.984;2022-09-09T00:42:16;100355.59;;;12.60;79.47
54924;BME280;40825;52.270;20.984;2022-09-09T00:42:43;100356.95;;;12.57;79.39
54924;BME280;40825;52.270;20.984;2022-09-09T00:43:21;100351.35;;;12.55;79.90
54924;BME280;40825;52.270;20.984;2022-09-09T00:44:00;100355.71;;;12.54;79.57
54924;BME280;40825;52.270;20.984;2022-09-09T00:44:31;100355.27;;;12.52;79.46
54924;BME280;40825;52.270;20.984;2022-09-09T00:45:28;100357.82;;;12.52;79.45
54924;BME280;40825;52.270;20.984;2022-09-09T00:47:51;100358.26;;;12.38;79.93
54924;BME280;40825;52.270;20.984;2022-09-09T00:48:13;100357.34;;;12.36;79.47
54924;BME280;40825;52.270;20.984;2022-09-09T00:49:00;100357.05;;;12.37;79.96
54924;BME280;40825;52.270;20.984;2022-09-09T00:49:55;100353.77;;;12.36;79.73
54924;BME280;40825;52.270;20.984;2022-09-09T00:50:56;100358.33;;;12.32;80.24
54924;BME280;40825;52.270;20.984;2022-09-09T00:53:05;100355.29;;;12.30;79.96
54924;BME280;40825;52.270;20.984;2022-09-09T00:54:31;100356.56;;;12.31;80.15
54924;BME280;40825;52.270;20.984;2022-09-09T00:55:02;100360.73;;;12.31;79.86
54924;BME280;40825;52.270;20.984;2022-09-09T00:56:07;100351.04;;;12.33;80.16
54924;BME280;40825;52.270;20.984;2022-09-09T00:56:30;100361.00;;;12.29;79.74
54924;BME280;40825;52.270;20.984;2022-09-09T00:57:28;100356.51;;;12.29;80.17
54924;BME280;40825;52.270;20.984;2022-09-09T00:57:52;100359.73;;;12.29;80.14
54924;BME280;40825;52.270;20.984;2022-09-09T00:58:16;100360.55;;;12.30;80.76
54924;BME280;40825;52.270;20.984;2022-09-09T00:58:38;100352.48;;;12.31;80.82
54924;BME280;40825;52.270;20.984;2022-09-09T00:59:10;100357.55;;;12.36;81.48
54924;BME280;40825;52.270;20.984;2022-09-09T01:00:31;100353.89;;;12.35;80.83
54924;BME280;40825;52.270;20.984;2022-09-09T01:00:57;100357.34;;;12.31;80.54
54924;BME280;40825;52.270;20.984;2022-09-09T01:01:26;100356.48;;;12.31;80.94
54924;BME280;40825;52.270;20.984;2022-09-09T01:01:51;100356.06;;;12.32;81.14
54924;BME280;40825;52.270;20.984;2022-09-09T01:02:43;100352.02;;;12.34;81.31
54924;BME280;40825;52.270;20.984;2022-09-09T01:03:37;100347.67;;;12.31;80.64
54924;BME280;40825;52.270;20.984;2022-09-09T01:03:59;100355.15;;;12.27;81.15
54924;BME280;40825;52.270;20.984;2022-09-09T01:04:29;100354.23;;;12.27;81.04
54924;BME280;40825;52.270;20.984;2022-09-09T01:05:05;100356.56;;;12.30;80.66
54924;BME280;40825;52.270;20.984;2022-09-09T01:05:56;100353.39;;;12.30;80.59
54924;BME280;40825;52.270;20.984;2022-09-09T01:06:32;100360.25;;;12.28;81.11
54924;BME280;40825;52.270;20.984;2022-09-09T01:07:08;100358.56;;;12.27;81.50
54924;BME280;40825;52.270;20.984;2022-09-09T01:07:33;100357.15;;;12.25;81.22
54924;BME280;40825;52.270;20.984;2022-09-09T01:07:58;100359.48;;;12.24;81.06
54924;BME280;40825;52.270;20.984;2022-09-09T01:09:52;100360.44;;;12.18;80.98
54924;BME280;40825;52.270;20.984;2022-09-09T01:10:28;100359.73;;;12.13;82.35
54924;BME280;40825;52.270;20.984;2022-09-09T01:10:53;100362.21;;;12.14;81.76
54924;BME280;40825;52.270;20.984;2022-09-09T01:11:26;100363.20;;;12.16;81.80
54924;BME280;40825;52.270;20.984;2022-09-09T01:12:15;100364.08;;;12.22;82.12
54924;BME280;40825;52.270;20.984;2022-09-09T01:12:42;100364.08;;;12.17;81.63
54924;BME280;40825;52.270;20.984;2022-09-09T01:13:11;100362.91;;;12.16;81.49
54924;BME280;40825;52.270;20.984;2022-09-09T01:13:36;100365.87;;;12.16;81.66
54924;BME280;40825;52.270;20.984;2022-09-09T01:14:19;100363.08;;;12.16;81.52
54924;BME280;40825;52.270;20.984;2022-09-09T01:14:54;100364.97;;;12.15;81.78
54924;BME280;40825;52.270;20.984;2022-09-09T01:15:22;100360.34;;;12.14;81.89
54924;BME280;40825;52.270;20.984;2022-09-09T01:15:46;100359.19;;;12.14;81.81
54924;BME280;40825;52.270;20.984;2022-09-09T01:16:10;100364.80;;;12.16;82.33
54924;BME280;40825;52.270;20.984;2022-09-09T01:16:33;100364.06;;;12.17;82.06
54924;BME280;40825;52.270;20.984;2022-09-09T01:16:59;100363.08;;;12.20;82.25
54924;BME280;40825;52.270;20.984;2022-09-09T01:17:50;100362.38;;;12.21;81.96
54924;BME280;40825;52.270;20.984;2022-09-09T01:18:17;100360.61;;;12.16;81.83
54924;BME280;40825;52.270;20.984;2022-09-09T01:18:48;100361.09;;;12.13;81.68
54924;BME280;40825;52.270;20.984;2022-09-09T01:19:24;100356.88;;;12.14;81.82
54924;BME280;40825;52.270;20.984;2022-09-09T01:22:06;100352.95;;;12.08;82.26
54924;BME280;40825;52.270;20.984;2022-09-09T01:24:30;100352.77;;;12.12;82.02
54924;BME280;40825;52.270;20.984;2022-09-09T01:25:22;100354.27;;;12.06;82.27
54924;BME280;40825;52.270;20.984;2022-09-09T01:26:50;100355.05;;;12.03;82.08
54924;BME280;40825;52.270;20.984;2022-09-09T01:27:14;100357.93;;;12.04;82.23
54924;BME280;40825;52.270;20.984;2022-09-09T01:27:37;100352.92;;;12.07;82.55
54924;BME280;40825;52.270;20.984;2022-09-09T01:28:08;100353.14;;;12.11;82.74
54924;BME280;40825;52.270;20.984;2022-09-09T01:28:32;100349.24;;;12.15;83.01
54924;BME280;40825;52.270;20.984;2022-09-09T01:28:56;100350.02;;;12.17;82.77
54924;BME280;40825;52.270;20.984;2022-09-09T01:29:20;100355.05;;;12.20;83.10
54924;BME280;40825;52.270;20.984;2022-09-09T01:29:43;100348.17;;;12.22;82.99
54924;BME280;40825;52.270;20.984;2022-09-09T01:30:10;100352.80;;;12.25;83.08
54924;BME280;40825;52.270;20.984;2022-09-09T01:30:34;100349.88;;;12.27;82.95
54924;BME280;40825;52.270;20.984;2022-09-09T01:30:57;100345.05;;;12.28;83.00
54924;BME280;40825;52.270;20.984;2022-09-09T01:31:41;100340.08;;;12.29;83.17
54924;BME280;40825;52.270;20.984;2022-09-09T01:33:00;100341.55;;;12.25;82.63
54924;BME280;40825;52.270;20.984;2022-09-09T01:33:25;100338.05;;;12.24;83.09
54924;BME280;40825;52.270;20.984;2022-09-09T01:33:47;100336.61;;;12.27;83.34
54924;BME280;40825;52.270;20.984;2022-09-09T01:34:13;100340.66;;;12.30;83.35
54924;BME280;40825;52.270;20.984;2022-09-09T01:34:38;100340.54;;;12.35;83.62
54924;BME280;40825;52.270;20.984;2022-09-09T01:35:02;100338.41;;;12.36;83.42
54924;BME280;40825;52.270;20.984;2022-09-09T01:36:34;100340.42;;;12.31;83.23
54924;BME280;40825;52.270;20.984;2022-09-09T01:37:03;100339.59;;;12.26;82.89
54924;BME280;40825;52.270;20.984;2022-09-09T01:37:27;100346.25;;;12.26;83.14
54924;BME280;40825;52.270;20.984;2022-09-09T01:37:48;100338.67;;;12.28;83.42
54924;BME280;40825;52.270;20.984;2022-09-09T01:38:10;100342.59;;;12.31;83.40
54924;BME280;40825;52.270;20.984;2022-09-09T01:38:32;100341.52;;;12.34;83.51
54924;BME280;40825;52.270;20.984;2022-09-09T01:38:56;100343.26;;;12.37;83.33
54924;BME280;40825;52.270;20.984;2022-09-09T01:39:20;100338.13;;;12.39;83.15
54924;BME280;40825;52.270;20.984;2022-09-09T01:39:43;100341.91;;;12.40;82.89
54924;BME280;40825;52.270;20.984;2022-09-09T01:40:06;100343.55;;;12.41;83.03
54924;BME280;40825;52.270;20.984;2022-09-09T01:40:28;100343.64;;;12.39;82.90
54924;BME280;40825;52.270;20.984;2022-09-09T01:40:51;100347.02;;;12.41;83.18
54924;BME280;40825;52.270;20.984;2022-09-09T01:41:15;100342.64;;;12.41;83.04
54924;BME280;40825;52.270;20.984;2022-09-09T01:41:38;100339.14;;;12.42;83.17
54924;BME280;40825;52.270;20.984;2022-09-09T01:42:00;100340.67;;;12.43;83.03
54924;BME280;40825;52.270;20.984;2022-09-09T01:42:22;100339.73;;;12.43;82.92
54924;BME280;40825;52.270;20.984;2022-09-09T01:42:44;100341.45;;;12.45;83.26
54924;BME280;40825;52.270;20.984;2022-09-09T01:43:13;100342.28;;;12.47;83.23
54924;BME280;40825;52.270;20.984;2022-09-09T01:43:37;100344.34;;;12.48;83.49
54924;BME280;40825;52.270;20.984;2022-09-09T01:44:02;100342.53;;;12.47;83.30
54924;BME280;40825;52.270;20.984;2022-09-09T01:44:25;100343.15;;;12.47;83.17
54924;BME280;40825;52.270;20.984;2022-09-09T01:44:48;100344.10;;;12.46;82.98
54924;BME280;40825;52.270;20.984;2022-09-09T01:45:10;100345.20;;;12.47;83.11
54924;BME280;40825;52.270;20.984;2022-09-09T01:45:32;100345.45;;;12.48;83.23
54924;BME280;40825;52.270;20.984;2022-09-09T01:45:56;100341.91;;;12.49;83.05
54924;BME280;40825;52.270;20.984;2022-09-09T01:46:21;100343.89;;;12.49;82.81
54924;BME280;40825;52.270;20.984;2022-09-09T01:46:50;100342.16;;;12.50;83.09
54924;BME280;40825;52.270;20.984;2022-09-09T01:47:11;100344.26;;;12.50;82.93
54924;BME280;40825;52.270;20.984;2022-09-09T01:47:34;100343.80;;;12.50;82.96
54924;BME280;40825;52.270;20.984;2022-09-09T01:47:56;100345.83;;;12.51;82.91
54924;BME280;40825;52.270;20.984;2022-09-09T01:48:19;100346.11;;;12.53;83.06
54924;BME280;40825;52.270;20.984;2022-09-09T01:48:43;100345.77;;;12.55;82.94
54924;BME280;40825;52.270;20.984;2022-09-09T01:49:06;100343.86;;;12.55;82.79
54924;BME280;40825;52.270;20.984;2022-09-09T01:49:29;100346.36;;;12.55;82.81
54924;BME280;40825;52.270;20.984;2022-09-09T01:49:52;100348.56;;;12.57;82.89
54924;BME280;40825;52.270;20.984;2022-09-09T01:50:15;100347.02;;;12.59;83.17
54924;BME280;40825;52.270;20.984;2022-09-09T01:50:37;100347.89;;;12.61;82.88
54924;BME280;40825;52.270;20.984;2022-09-09T01:50:59;100346.36;;;12.61;83.04
54924;BME280;40825;52.270;20.984;2022-09-09T01:51:21;100347.31;;;12.64;83.19
54924;BME280;40825;52.270;20.984;2022-09-09T01:51:52;100348.46;;;12.66;83.06
54924;BME280;40825;52.270;20.984;2022-09-09T01:52:14;100346.33;;;12.66;82.89
54924;BME280;40825;52.270;20.984;2022-09-09T01:52:36;100344.47;;;12.65;82.95
54924;BME280;40825;52.270;20.984;2022-09-09T01:52:59;100346.33;;;12.66;82.87
54924;BME280;40825;52.270;20.984;2022-09-09T01:53:23;100345.88;;;12.67;82.81
54924;BME280;40825;52.270;20.984;2022-09-09T01:53:45;100344.66;;;12.68;82.95
54924;BME280;40825;52.270;20.984;2022-09-09T01:54:11;100344.30;;;12.69;82.89
54924;BME280;40825;52.270;20.984;2022-09-09T01:54:33;100342.65;;;12.69;82.89
54924;BME280;40825;52.270;20.984;2022-09-09T01:54:58;100344.79;;;12.71;82.84
54924;BME280;40825;52.270;20.984;2022-09-09T01:55:29;100342.29;;;12.72;82.90
54924;BME280;40825;52.270;20.984;2022-09-09T01:56:13;100345.88;;;12.72;82.66
54924;BME280;40825;52.270;20.984;2022-09-09T01:58:08;100340.89;;;12.48;82.69
54924;BME280;40825;52.270;20.984;2022-09-09T01:58:58;100347.06;;;12.44;82.98
54924;BME280;40825;52.270;20.984;2022-09-09T02:00:08;100341.95;;;12.38;83.21
54924;BME280;40825;52.270;20.984;2022-09-09T02:05:30;100345.19;;;12.09;83.39
54924;BME280;40825;52.270;20.984;2022-09-09T02:06:48;100348.70;;;12.09;83.28
54924;BME280;40825;52.270;20.984;2022-09-09T02:07:49;100352.52;;;12.10;83.62
54924;BME280;40825;52.270;20.984;2022-09-09T02:08:26;100349.67;;;12.10;83.44
54924;BME280;40825;52.270;20.984;2022-09-09T02:08:52;100348.57;;;12.09;83.50
54924;BME280;40825;52.270;20.984;2022-09-09T02:09:18;100349.02;;;12.11;83.75
54924;BME280;40825;52.270;20.984;2022-09-09T02:09:47;100346.19;;;12.14;83.62
54924;BME280;40825;52.270;20.984;2022-09-09T02:10:50;100346.98;;;12.20;83.97
54924;BME280;40825;52.270;20.984;2022-09-09T02:11:20;100344.46;;;12.20;83.63
54924;BME280;40825;52.270;20.984;2022-09-09T02:11:43;100348.71;;;12.20;83.89
54924;BME280;40825;52.270;20.984;2022-09-09T02:12:13;100345.83;;;12.22;84.08
54924;BME280;40825;52.270;20.984;2022-09-09T02:12:35;100345.30;;;12.25;84.10
54924;BME280;40825;52.270;20.984;2022-09-09T02:13:12;100345.06;;;12.27;84.20
54924;BME280;40825;52.270;20.984;2022-09-09T02:13:38;100345.23;;;12.30;84.03
54924;BME280;40825;52.270;20.984;2022-09-09T02:14:03;100337.59;;;12.31;84.60
54924;BME280;40825;52.270;20.984;2022-09-09T02:14:34;100343.01;;;12.33;84.39
54924;BME280;40825;52.270;20.984;2022-09-09T02:15:03;100344.53;;;12.33;84.21
54924;BME280;40825;52.270;20.984;2022-09-09T02:15:42;100343.79;;;12.31;83.97
54924;BME280;40825;52.270;20.984;2022-09-09T02:16:40;100344.98;;;12.27;83.91
54924;BME280;40825;52.270;20.984;2022-09-09T02:17:09;100342.75;;;12.27;84.25
54924;BME280;40825;52.270;20.984;2022-09-09T02:17:36;100341.16;;;12.28;84.03
54924;BME280;40825;52.270;20.984;2022-09-09T02:18:01;100341.80;;;12.30;84.11
54924;BME280;40825;52.270;20.984;2022-09-09T02:18:40;100342.64;;;12.31;84.23
54924;BME280;40825;52.270;20.984;2022-09-09T02:19:13;100339.89;;;12.31;84.08
54924;BME280;40825;52.270;20.984;2022-09-09T02:19:41;100340.01;;;12.31;83.98
54924;BME280;40825;52.270;20.984;2022-09-09T02:20:12;100337.98;;;12.33;84.69
54924;BME280;40825;52.270;20.984;2022-09-09T02:20:37;100338.86;;;12.34;84.44
54924;BME280;40825;52.270;20.984;2022-09-09T02:20:59;100334.86;;;12.35;84.45
54924;BME280;40825;52.270;20.984;2022-09-09T02:21:23;100338.80;;;12.37;84.52
54924;BME280;40825;52.270;20.984;2022-09-09T02:21:46;100336.60;;;12.40;84.47
54924;BME280;40825;52.270;20.984;2022-09-09T02:22:09;100335.80;;;12.41;84.45
54924;BME280;40825;52.270;20.984;2022-09-09T02:22:31;100333.17;;;12.44;84.60
54924;BME280;40825;52.270;20.984;2022-09-09T02:22:58;100331.81;;;12.45;84.29
54924;BME280;40825;52.270;20.984;2022-09-09T02:23:20;100336.98;;;12.47;84.64
54924;BME280;40825;52.270;20.984;2022-09-09T02:23:43;100333.96;;;12.49;84.53
54924;BME280;40825;52.270;20.984;2022-09-09T02:24:09;100334.17;;;12.50;84.52
54924;BME280;40825;52.270;20.984;2022-09-09T02:24:36;100335.93;;;12.51;84.30
54924;BME280;40825;52.270;20.984;2022-09-09T02:25:02;100335.33;;;12.52;84.38
54924;BME280;40825;52.270;20.984;2022-09-09T02:25:28;100332.98;;;12.52;84.27
54924;BME280;40825;52.270;20.984;2022-09-09T02:25:51;100335.33;;;12.52;84.19
54924;BME280;40825;52.270;20.984;2022-09-09T02:26:15;100335.16;;;12.53;84.46
54924;BME280;40825;52.270;20.984;2022-09-09T02:26:42;100334.45;;;12.54;84.25
54924;BME280;40825;52.270;20.984;2022-09-09T02:30:21;100332.23;;;12.21;84.55
54924;BME280;40825;52.270;20.984;2022-09-09T02:30:50;100328.40;;;12.22;84.61
54924;BME280;40825;52.270;20.984;2022-09-09T02:31:19;100328.34;;;12.26;84.39
54924;BME280;40825;52.270;20.984;2022-09-09T02:31:56;100326.53;;;12.28;84.48
54924;BME280;40825;52.270;20.984;2022-09-09T02:32:24;100329.66;;;12.28;84.42
54924;BME280;40825;52.270;20.984;2022-09-09T02:32:52;100331.05;;;12.29;84.41
54924;BME280;40825;52.270;20.984;2022-09-09T02:33:14;100328.40;;;12.30;84.42
54924;BME280;40825;52.270;20.984;2022-09-09T02:33:49;100331.31;;;12.31;84.36
54924;BME280;40825;52.270;20.984;2022-09-09T02:34:18;100326.79;;;12.31;84.18
54924;BME280;40825;52.270;20.984;2022-09-09T02:34:51;100329.51;;;12.31;84.33
54924;BME280;40825;52.270;20.984;2022-09-09T02:35:20;100329.14;;;12.31;84.38
54924;BME280;40825;52.270;20.984;2022-09-09T02:35:43;100326.54;;;12.32;84.61
54924;BME280;40825;52.270;20.984;2022-09-09T02:36:10;100330.48;;;12.34;84.69
54924;BME280;40825;52.270;20.984;2022-09-09T02:36:35;100329.05;;;12.37;84.70
54924;BME280;40825;52.270;20.984;2022-09-09T02:37:00;100330.98;;;12.40;84.76
54924;BME280;40825;52.270;20.984;2022-09-09T02:37:29;100334.61;;;12.43;84.81
54924;BME280;40825;52.270;20.984;2022-09-09T02:37:55;100333.71;;;12.44;84.56
54924;BME280;40825;52.270;20.984;2022-09-09T02:38:20;100334.91;;;12.44;84.58
54924;BME280;40825;52.270;20.984;2022-09-09T02:38:46;100333.05;;;12.45;84.55
54924;BME280;40825;52.270;20.984;2022-09-09T02:39:12;100339.52;;;12.47;84.54
54924;BME280;40825;52.270;20.984;2022-09-09T02:39:39;100336.19;;;12.48;84.78
54924;BME280;40825;52.270;20.984;2022-09-09T02:40:12;100336.93;;;12.51;85.01
54924;BME280;40825;52.270;20.984;2022-09-09T02:40:35;100339.30;;;12.50;84.35
54924;BME280;40825;52.270;20.984;2022-09-09T02:40:57;100338.12;;;12.49;84.62
54924;BME280;40825;52.270;20.984;2022-09-09T02:41:26;100337.38;;;12.51;84.63
54924;BME280;40825;52.270;20.984;2022-09-09T02:41:49;100339.19;;;12.52;84.39
54924;BME280;40825;52.270;20.984;2022-09-09T02:42:11;100337.95;;;12.52;84.37
54924;BME280;40825;52.270;20.984;2022-09-09T02:42:56;100338.30;;;12.55;84.81
54924;BME280;40825;52.270;20.984;2022-09-09T02:43:17;100339.81;;;12.54;84.47
54924;BME280;40825;52.270;20.984;2022-09-09T02:43:40;100337.52;;;12.51;84.53
54924;BME280;40825;52.270;20.984;2022-09-09T02:44:11;100336.27;;;12.53;84.75
54924;BME280;40825;52.270;20.984;2022-09-09T02:44:34;100339.60;;;12.55;84.52
54924;BME280;40825;52.270;20.984;2022-09-09T02:45:02;100341.05;;;12.55;84.48
54924;BME280;40825;52.270;20.984;2022-09-09T02:45:36;100340.10;;;12.56;84.62
54924;BME280;40825;52.270;20.984;2022-09-09T02:48:17;100340.67;;;12.47;84.56
54924;BME280;40825;52.270;20.984;2022-09-09T02:49:21;100337.91;;;12.46;84.56
54924;BME280;40825;52.270;20.984;2022-09-09T02:51:06;100344.72;;;12.29;84.93
54924;BME280;40825;52.270;20.984;2022-09-09T02:52:14;100341.27;;;12.30;84.81
54924;BME280;40825;52.270;20.984;2022-09-09T02:58:57;100351.19;;;12.04;85.43
54924;BME280;40825;52.270;20.984;2022-09-09T02:59:20;100351.73;;;12.07;85.57
54924;BME280;40825;52.270;20.984;2022-09-09T02:59:44;100350.46;;;12.11;85.66
54924;BME280;40825;52.270;20.984;2022-09-09T03:00:09;100350.64;;;12.17;85.40
54924;BME280;40825;52.270;20.984;2022-09-09T03:00:33;100353.44;;;12.21;85.75
54924;BME280;40825;52.270;20.984;2022-09-09T03:00:57;100356.91;;;12.25;85.84
54924;BME280;40825;52.270;20.984;2022-09-09T03:01:24;100353.08;;;12.25;85.55
54924;BME280;40825;52.270;20.984;2022-09-09T03:01:46;100352.27;;;12.26;85.48
54924;BME280;40825;52.270;20.984;2022-09-09T03:02:08;100352.52;;;12.28;85.62
54924;BME280;40825;52.270;20.984;2022-09-09T03:02:31;100354.55;;;12.30;85.53
54924;BME280;40825;52.270;20.984;2022-09-09T03:02:53;100351.98;;;12.32;85.68
54924;BME280;40825;52.270;20.984;2022-09-09T03:03:19;100348.03;;;12.35;85.82
54924;BME280;40825;52.270;20.984;2022-09-09T03:03:45;100348.21;;;12.38;85.95
54924;BME280;40825;52.270;20.984;2022-09-09T03:04:07;100349.85;;;12.38;85.68
54924;BME280;40825;52.270;20.984;2022-09-09T03:04:29;100349.33;;;12.39;85.62
54924;BME280;40825;52.270;20.984;2022-09-09T03:04:52;100345.69;;;12.41;85.72
54924;BME280;40825;52.270;20.984;2022-09-09T03:05:13;100353.60;;;12.43;85.75
54924;BME280;40825;52.270;20.984;2022-09-09T03:05:35;100353.31;;;12.46;85.80
54924;BME280;40825;52.270;20.984;2022-09-09T03:05:57;100350.83;;;12.47;85.74
54924;BME280;40825;52.270;20.984;2022-09-09T03:06:24;100347.85;;;12.48;85.35
54924;BME280;40825;52.270;20.984;2022-09-09T03:06:49;100351.06;;;12.48;85.21
54924;BME280;40825;52.270;20.984;2022-09-09T03:07:16;100348.30;;;12.47;85.56
54924;BME280;40825;52.270;20.984;2022-09-09T03:07:40;100350.73;;;12.49;85.91
54924;BME280;40825;52.270;20.984;2022-09-09T03:08:04;100344.71;;;12.48;85.86
54924;BME280;40825;52.270;20.984;2022-09-09T03:08:28;100345.29;;;12.51;85.74
54924;BME280;40825;52.270;20.984;2022-09-09T03:08:53;100344.26;;;12.52;85.72
54924;BME280;40825;52.270;20.984;2022-09-09T03:09:15;100344.85;;;12.51;85.31
54924;BME280;40825;52.270;20.984;2022-09-09T03:09:37;100349.12;;;12.52;85.28
54924;BME280;40825;52.270;20.984;2022-09-09T03:10:02;100343.19;;;12.53;85.46
54924;BME280;40825;52.270;20.984;2022-09-09T03:10:26;100348.21;;;12.54;85.27
54924;BME280;40825;52.270;20.984;2022-09-09T03:10:48;100344.02;;;12.54;85.31
54924;BME280;40825;52.270;20.984;2022-09-09T03:11:19;100345.54;;;12.55;85.10
54924;BME280;40825;52.270;20.984;2022-09-09T03:11:41;100343.44;;;12.53;85.02
54924;BME280;40825;52.270;20.984;2022-09-09T03:12:03;100343.39;;;12.53;85.19
54924;BME280;40825;52.270;20.984;2022-09-09T03:12:27;100340.51;;;12.55;85.11
54924;BME280;40825;52.270;20.984;2022-09-09T03:12:49;100342.70;;;12.56;85.38
54924;BME280;40825;52.270;20.984;2022-09-09T03:13:13;100343.34;;;12.58;85.26
54924;BME280;40825;52.270;20.984;2022-09-09T03:13:37;100348.14;;;12.59;85.31
54924;BME280;40825;52.270;20.984;2022-09-09T03:13:59;100344.72;;;12.60;85.28
54924;BME280;40825;52.270;20.984;2022-09-09T03:14:23;100340.40;;;12.63;85.49
54924;BME280;40825;52.270;20.984;2022-09-09T03:14:46;100347.94;;;12.63;84.91
54924;BME280;40825;52.270;20.984;2022-09-09T03:15:08;100339.36;;;12.64;85.32